createdAt,value
2017-10-02T00:00:22.900Z,0
2017-10-02T00:01:03.422Z,0
2017-10-02T00:01:43.951Z,0
2017-10-02T00:02:24.483Z,0
2017-10-02T00:03:05.012Z,0
2017-10-02T00:03:45.550Z,0
2017-10-02T00:04:26.086Z,0
2017-10-02T00:05:07.369Z,0
2017-10-02T00:05:49.424Z,0
2017-10-02T00:06:31.238Z,0
2017-10-02T00:07:13.295Z,0
2017-10-02T00:07:55.705Z,0
2017-10-02T00:08:37.798Z,0
2017-10-02T00:09:18.332Z,0
2017-10-02T00:09:58.877Z,0
2017-10-02T00:10:39.419Z,0
2017-10-02T00:11:19.950Z,0
2017-10-02T00:12:00.463Z,0
2017-10-02T00:12:41.029Z,0
2017-10-02T00:13:21.570Z,0
2017-10-02T00:14:02.105Z,0
2017-10-02T00:14:42.649Z,0
2017-10-02T00:15:23.202Z,0
2017-10-02T00:16:03.734Z,0
2017-10-02T00:16:44.264Z,0
2017-10-02T00:17:24.811Z,0
2017-10-02T00:18:05.341Z,0
2017-10-02T00:18:45.871Z,0
2017-10-02T00:19:26.408Z,0
2017-10-02T00:20:06.949Z,0
2017-10-02T00:20:47.483Z,0
2017-10-02T00:21:28.016Z,0
2017-10-02T00:22:08.544Z,0
2017-10-02T00:22:49.074Z,0
2017-10-02T00:23:29.610Z,0
2017-10-02T00:24:10.154Z,0
2017-10-02T00:24:50.690Z,0
2017-10-02T00:25:31.222Z,0
2017-10-02T00:28:14.215Z,0
2017-10-02T00:28:56.116Z,0
2017-10-02T00:29:37.438Z,0
2017-10-02T00:30:17.977Z,0
2017-10-02T00:30:58.512Z,0
2017-10-02T00:31:39.035Z,0
2017-10-02T00:32:19.598Z,0
2017-10-02T00:33:00.119Z,0
2017-10-02T00:33:40.648Z,0
2017-10-02T00:34:21.186Z,0
2017-10-02T00:35:01.720Z,0
2017-10-02T00:35:42.254Z,0
2017-10-02T00:36:22.803Z,0
2017-10-02T00:37:03.333Z,0
2017-10-02T00:37:43.866Z,0
2017-10-02T00:38:24.406Z,0
2017-10-02T00:39:04.935Z,0
2017-10-02T00:39:45.472Z,0
2017-10-02T00:40:26.012Z,0
2017-10-02T00:41:06.535Z,0
2017-10-02T00:41:47.069Z,0
2017-10-02T00:42:27.597Z,0
2017-10-02T00:43:08.138Z,0
2017-10-02T00:43:48.673Z,0
2017-10-02T00:44:29.215Z,0
2017-10-02T00:45:09.754Z,0
2017-10-02T00:45:50.286Z,0
2017-10-02T00:46:30.823Z,0
2017-10-02T00:47:11.364Z,0
2017-10-02T00:47:51.907Z,0
2017-10-02T00:48:32.439Z,0
2017-10-02T00:49:12.971Z,0
2017-10-02T00:49:53.514Z,0
2017-10-02T00:50:34.060Z,0
2017-10-02T00:51:14.596Z,0
2017-10-02T00:51:55.133Z,0
2017-10-02T00:52:35.660Z,0
2017-10-02T00:53:16.199Z,0
2017-10-02T00:53:56.734Z,0
2017-10-02T00:54:37.269Z,0
2017-10-02T00:55:17.817Z,0
2017-10-02T00:55:58.353Z,0
2017-10-02T00:56:38.888Z,0
2017-10-02T00:57:19.421Z,0
2017-10-02T00:57:59.962Z,0
2017-10-02T00:58:40.506Z,0
2017-10-02T00:59:21.038Z,0
2017-10-02T01:00:01.581Z,0
2017-10-02T01:00:42.121Z,0
2017-10-02T01:01:22.683Z,0
2017-10-02T01:02:03.226Z,0
2017-10-02T01:02:43.757Z,0
2017-10-02T01:03:24.290Z,0
2017-10-02T01:04:04.821Z,0
2017-10-02T01:04:45.358Z,0
2017-10-02T01:05:25.902Z,0
2017-10-02T01:06:06.437Z,0
2017-10-02T01:06:46.982Z,0
2017-10-02T01:07:27.502Z,0
2017-10-02T01:08:08.021Z,0
2017-10-02T01:08:48.559Z,0
2017-10-02T01:09:29.103Z,0
2017-10-02T01:10:09.648Z,0
2017-10-02T01:10:50.181Z,0
2017-10-02T01:11:30.717Z,0
2017-10-02T01:12:11.256Z,0
2017-10-02T01:12:51.787Z,0
2017-10-02T01:13:32.326Z,0
2017-10-02T01:14:12.868Z,0
2017-10-02T01:14:53.411Z,0
2017-10-02T01:15:33.953Z,0
2017-10-02T01:16:14.493Z,0
2017-10-02T01:16:55.052Z,0
2017-10-02T01:17:35.589Z,0
2017-10-02T01:18:16.138Z,0
2017-10-02T01:18:56.691Z,0
2017-10-02T01:19:37.205Z,0
2017-10-02T01:20:17.746Z,0
2017-10-02T01:20:58.279Z,0
2017-10-02T01:21:38.820Z,0
2017-10-02T01:22:19.344Z,0
2017-10-02T01:22:59.875Z,0
2017-10-02T01:23:40.410Z,0
2017-10-02T01:24:20.946Z,0
2017-10-02T01:25:01.482Z,0
2017-10-02T01:25:42.023Z,0
2017-10-02T01:26:22.563Z,0
2017-10-02T01:27:03.103Z,0
2017-10-02T01:27:43.646Z,0
2017-10-02T01:28:24.180Z,0
2017-10-02T01:29:04.716Z,0
2017-10-02T01:29:45.253Z,0
2017-10-02T01:30:25.774Z,0
2017-10-02T01:31:06.329Z,0
2017-10-02T01:31:46.868Z,0
2017-10-02T01:32:27.400Z,0
2017-10-02T01:33:07.939Z,0
2017-10-02T01:33:48.476Z,0
2017-10-02T01:34:29.009Z,0
2017-10-02T01:35:09.542Z,0
2017-10-02T01:35:50.083Z,0
2017-10-02T01:36:30.622Z,0
2017-10-02T01:37:11.163Z,0
2017-10-02T01:37:51.702Z,0
2017-10-02T01:38:32.232Z,0
2017-10-02T01:39:12.767Z,0
2017-10-02T01:39:53.312Z,0
2017-10-02T01:40:33.848Z,0
2017-10-02T01:41:14.390Z,0
2017-10-02T01:41:54.928Z,0
2017-10-02T01:42:35.465Z,0
2017-10-02T01:43:16.005Z,0
2017-10-02T01:43:56.540Z,0
2017-10-02T01:44:37.077Z,0
2017-10-02T01:45:17.606Z,0
2017-10-02T01:45:58.143Z,0
2017-10-02T01:46:38.681Z,0
2017-10-02T01:47:19.223Z,0
2017-10-02T01:47:59.765Z,0
2017-10-02T01:48:40.305Z,0
2017-10-02T01:49:20.835Z,0
2017-10-02T01:50:01.371Z,0
2017-10-02T01:50:41.908Z,0
2017-10-02T01:51:22.449Z,0
2017-10-02T01:52:02.984Z,0
2017-10-02T01:52:43.523Z,0
2017-10-02T01:53:24.064Z,0
2017-10-02T01:54:04.598Z,0
2017-10-02T01:54:45.129Z,0
2017-10-02T01:55:25.667Z,0
2017-10-02T01:56:06.195Z,0
2017-10-02T01:56:46.735Z,0
2017-10-02T01:57:27.393Z,0
2017-10-02T01:58:07.932Z,0
2017-10-02T01:58:48.486Z,0
2017-10-02T01:59:29.005Z,0
2017-10-02T02:00:09.544Z,0
2017-10-02T02:00:50.070Z,0
2017-10-02T02:01:30.607Z,0
2017-10-02T02:02:11.144Z,0
2017-10-02T02:02:51.678Z,0
2017-10-02T02:03:32.219Z,0
2017-10-02T02:04:12.754Z,0
2017-10-02T02:04:53.291Z,0
2017-10-02T02:05:33.825Z,0
2017-10-02T02:06:14.365Z,0
2017-10-02T02:06:54.900Z,0
2017-10-02T02:07:35.445Z,0
2017-10-02T02:08:15.996Z,0
2017-10-02T02:08:56.535Z,0
2017-10-02T02:09:37.085Z,0
2017-10-02T02:10:17.626Z,0
2017-10-02T02:10:58.152Z,0
2017-10-02T02:11:38.691Z,0
2017-10-02T02:12:19.218Z,0
2017-10-02T02:12:59.756Z,0
2017-10-02T02:13:40.294Z,0
2017-10-02T02:14:20.812Z,0
2017-10-02T02:15:01.342Z,0
2017-10-02T02:15:41.880Z,0
2017-10-02T02:16:22.418Z,0
2017-10-02T02:17:02.958Z,0
2017-10-02T02:17:43.491Z,0
2017-10-02T02:18:24.031Z,0
2017-10-02T02:19:04.574Z,0
2017-10-02T02:19:45.102Z,0
2017-10-02T02:20:25.640Z,0
2017-10-02T02:21:06.180Z,0
2017-10-02T02:21:46.714Z,0
2017-10-02T02:22:27.250Z,0
2017-10-02T02:23:07.795Z,0
2017-10-02T02:23:48.332Z,0
2017-10-02T02:24:28.866Z,0
2017-10-02T02:25:09.403Z,0
2017-10-02T02:25:49.957Z,0
2017-10-02T02:26:30.502Z,0
2017-10-02T02:27:11.035Z,0
2017-10-02T02:27:51.584Z,0
2017-10-02T02:28:32.120Z,0
2017-10-02T02:29:12.658Z,0
2017-10-02T02:29:53.182Z,0
2017-10-02T02:30:33.719Z,0
2017-10-02T02:31:14.254Z,0
2017-10-02T02:31:54.793Z,0
2017-10-02T02:32:35.336Z,0
2017-10-02T02:33:15.873Z,0
2017-10-02T02:33:56.412Z,0
2017-10-02T02:34:36.958Z,0
2017-10-02T02:35:17.478Z,0
2017-10-02T02:35:58.004Z,0
2017-10-02T02:36:38.540Z,0
2017-10-02T02:37:19.076Z,0
2017-10-02T02:37:59.619Z,0
2017-10-02T02:38:40.150Z,0
2017-10-02T02:39:20.688Z,0
2017-10-02T02:40:01.226Z,0
2017-10-02T02:40:41.766Z,0
2017-10-02T02:41:22.306Z,0
2017-10-02T02:42:02.844Z,0
2017-10-02T02:42:43.378Z,0
2017-10-02T02:43:23.922Z,0
2017-10-02T02:44:04.460Z,0
2017-10-02T02:44:44.996Z,0
2017-10-02T02:45:25.531Z,0
2017-10-02T02:46:06.055Z,0
2017-10-02T02:46:46.599Z,0
2017-10-02T02:47:27.136Z,0
2017-10-02T02:48:07.670Z,0
2017-10-02T02:48:48.213Z,0
2017-10-02T02:49:28.752Z,0
2017-10-02T02:50:09.283Z,0
2017-10-02T02:50:49.817Z,0
2017-10-02T02:51:30.351Z,0
2017-10-02T02:52:10.896Z,0
2017-10-02T02:52:51.440Z,0
2017-10-02T02:53:31.972Z,0
2017-10-02T02:54:12.520Z,0
2017-10-02T02:54:53.049Z,0
2017-10-02T02:55:33.592Z,0
2017-10-02T02:56:14.129Z,0
2017-10-02T02:56:54.663Z,0
2017-10-02T02:57:35.197Z,0
2017-10-02T02:58:15.738Z,0
2017-10-02T02:58:56.277Z,0
2017-10-02T02:59:36.830Z,0
2017-10-02T03:00:17.357Z,0
2017-10-02T03:00:57.909Z,0
2017-10-02T03:01:38.428Z,0
2017-10-02T03:02:18.966Z,0
2017-10-02T03:02:59.505Z,0
2017-10-02T03:03:40.045Z,0
2017-10-02T03:04:20.585Z,0
2017-10-02T03:05:01.117Z,0
2017-10-02T03:05:41.647Z,0
2017-10-02T03:06:22.179Z,0
2017-10-02T03:07:02.707Z,0
2017-10-02T03:07:43.237Z,0
2017-10-02T03:08:23.770Z,0
2017-10-02T03:09:04.311Z,0
2017-10-02T03:09:44.832Z,0
2017-10-02T03:10:25.370Z,0
2017-10-02T03:11:05.911Z,0
2017-10-02T03:11:46.437Z,0
2017-10-02T03:12:26.987Z,0
2017-10-02T03:13:07.512Z,0
2017-10-02T03:13:48.042Z,0
2017-10-02T03:14:28.591Z,0
2017-10-02T03:15:09.129Z,0
2017-10-02T03:15:49.666Z,0
2017-10-02T03:16:30.210Z,0
2017-10-02T03:17:10.759Z,0
2017-10-02T03:17:51.304Z,0
2017-10-02T03:18:31.856Z,0
2017-10-02T03:19:12.393Z,0
2017-10-02T03:19:52.971Z,0
2017-10-02T03:20:33.510Z,0
2017-10-02T03:21:14.049Z,0
2017-10-02T03:21:54.587Z,0
2017-10-02T03:22:35.129Z,0
2017-10-02T03:23:15.669Z,0
2017-10-02T03:23:56.212Z,0
2017-10-02T03:24:36.772Z,0
2017-10-02T03:25:17.312Z,0
2017-10-02T03:25:57.828Z,0
2017-10-02T03:26:38.369Z,0
2017-10-02T03:27:18.911Z,0
2017-10-02T03:27:59.452Z,0
2017-10-02T03:28:39.973Z,0
2017-10-02T03:29:20.499Z,0
2017-10-02T03:30:01.024Z,0
2017-10-02T03:30:41.572Z,0
2017-10-02T03:31:22.105Z,0
2017-10-02T03:32:02.633Z,0
2017-10-02T03:32:43.157Z,0
2017-10-02T03:33:23.692Z,0
2017-10-02T03:34:04.243Z,0
2017-10-02T03:34:44.778Z,0
2017-10-02T03:35:25.309Z,0
2017-10-02T03:36:05.857Z,0
2017-10-02T03:36:46.394Z,0
2017-10-02T03:37:26.928Z,0
2017-10-02T03:38:07.452Z,0
2017-10-02T03:38:47.996Z,0
2017-10-02T03:39:28.547Z,0
2017-10-02T03:40:09.085Z,0
2017-10-02T03:40:49.631Z,0
2017-10-02T03:41:30.173Z,0
2017-10-02T03:42:10.717Z,0
2017-10-02T03:42:51.262Z,0
2017-10-02T03:43:31.796Z,0
2017-10-02T03:44:12.333Z,0
2017-10-02T03:44:52.862Z,0
2017-10-02T03:45:33.400Z,0
2017-10-02T03:46:13.939Z,0
2017-10-02T03:46:54.470Z,0
2017-10-02T03:47:35.006Z,0
2017-10-02T03:48:15.547Z,0
2017-10-02T03:48:56.075Z,0
2017-10-02T03:49:36.613Z,0
2017-10-02T03:50:17.152Z,0
2017-10-02T03:50:57.675Z,0
2017-10-02T03:51:38.239Z,0
2017-10-02T03:52:18.763Z,0
2017-10-02T03:52:59.303Z,0
2017-10-02T03:53:39.837Z,0
2017-10-02T03:54:20.369Z,0
2017-10-02T03:55:00.895Z,0
2017-10-02T03:55:41.426Z,0
2017-10-02T03:56:21.976Z,0
2017-10-02T03:57:02.510Z,0
2017-10-02T03:57:43.074Z,0
2017-10-02T03:58:23.609Z,0
2017-10-02T03:59:04.137Z,0
2017-10-02T03:59:44.673Z,0
2017-10-02T04:00:25.213Z,0
2017-10-02T04:01:05.750Z,0
2017-10-02T04:01:46.284Z,0
2017-10-02T04:02:26.808Z,0
2017-10-02T04:03:07.328Z,0
2017-10-02T04:03:47.872Z,0
2017-10-02T04:04:28.410Z,0
2017-10-02T04:05:08.943Z,0
2017-10-02T04:05:49.470Z,0
2017-10-02T04:06:29.985Z,0
2017-10-02T04:07:10.510Z,0
2017-10-02T04:07:51.043Z,0
2017-10-02T04:08:31.548Z,0
2017-10-02T04:09:12.069Z,0
2017-10-02T04:09:52.612Z,0
2017-10-02T04:10:33.145Z,0
2017-10-02T04:11:13.686Z,0
2017-10-02T04:11:54.243Z,0
2017-10-02T04:12:34.787Z,0
2017-10-02T04:13:15.310Z,0
2017-10-02T04:13:55.819Z,0
2017-10-02T04:14:36.365Z,0
2017-10-02T04:15:16.909Z,0
2017-10-02T04:15:57.414Z,0
2017-10-02T04:16:37.968Z,0
2017-10-02T04:17:18.471Z,0
2017-10-02T04:17:58.990Z,0
2017-10-02T04:18:39.519Z,0
2017-10-02T04:19:20.052Z,0
2017-10-02T04:20:00.574Z,0
2017-10-02T04:20:41.083Z,0
2017-10-02T04:21:21.599Z,0
2017-10-02T04:22:02.136Z,0
2017-10-02T04:22:42.678Z,0
2017-10-02T04:23:23.209Z,0
2017-10-02T04:24:03.720Z,0
2017-10-02T04:24:44.246Z,0
2017-10-02T04:25:24.793Z,0
2017-10-02T04:26:05.367Z,0
2017-10-02T04:26:45.875Z,0
2017-10-02T04:27:26.397Z,0
2017-10-02T04:28:06.922Z,0
2017-10-02T04:28:47.438Z,0
2017-10-02T04:29:27.968Z,0
2017-10-02T04:30:08.504Z,0
2017-10-02T04:30:49.048Z,0
2017-10-02T04:31:29.575Z,0
2017-10-02T04:32:10.104Z,0
2017-10-02T04:32:50.643Z,0
2017-10-02T04:33:31.178Z,0
2017-10-02T04:34:11.713Z,0
2017-10-02T04:34:52.254Z,0
2017-10-02T04:35:32.779Z,0
2017-10-02T04:36:13.314Z,0
2017-10-02T04:36:53.859Z,0
2017-10-02T04:39:50.959Z,0
2017-10-02T04:40:33.269Z,0
2017-10-02T04:41:14.997Z,0
2017-10-02T04:41:55.548Z,0
2017-10-02T04:42:36.054Z,0
2017-10-02T04:43:16.571Z,0
2017-10-02T04:43:57.065Z,0
2017-10-02T04:44:37.611Z,0
2017-10-02T04:45:18.159Z,0
2017-10-02T04:45:58.679Z,0
2017-10-02T04:46:39.198Z,0
2017-10-02T04:47:19.749Z,0
2017-10-02T04:48:00.276Z,0
2017-10-02T04:48:40.804Z,0
2017-10-02T04:49:21.408Z,0
2017-10-02T04:50:01.885Z,0
2017-10-02T04:50:42.481Z,0
2017-10-02T04:51:23.030Z,0
2017-10-02T04:52:03.618Z,0
2017-10-02T04:52:44.131Z,0
2017-10-02T04:53:24.685Z,0
2017-10-02T04:54:05.215Z,0
2017-10-02T04:54:45.803Z,0
2017-10-02T04:55:26.328Z,0
2017-10-02T04:56:06.855Z,0
2017-10-02T04:56:47.393Z,0
2017-10-02T04:57:27.920Z,0
2017-10-02T04:58:08.459Z,0
2017-10-02T04:58:48.999Z,0
2017-10-02T04:59:29.523Z,0
2017-10-02T05:00:10.146Z,0
2017-10-02T05:00:50.723Z,0
2017-10-02T05:01:31.264Z,0
2017-10-02T05:02:11.793Z,0
2017-10-02T05:02:52.318Z,0
2017-10-02T05:03:32.853Z,0
2017-10-02T05:04:13.392Z,0
2017-10-02T05:04:53.924Z,0
2017-10-02T05:05:34.461Z,0
2017-10-02T05:06:15.003Z,0
2017-10-02T05:06:55.516Z,0
2017-10-02T05:07:36.047Z,0
2017-10-02T05:08:16.579Z,0
2017-10-02T05:08:57.147Z,0
2017-10-02T05:09:37.686Z,0
2017-10-02T05:10:18.208Z,0
2017-10-02T05:10:58.772Z,0
2017-10-02T05:11:39.291Z,0
2017-10-02T05:12:19.800Z,0
2017-10-02T05:13:00.336Z,0
2017-10-02T05:13:40.881Z,0
2017-10-02T05:14:21.424Z,0
2017-10-02T05:15:01.933Z,0
2017-10-02T05:15:42.458Z,0
2017-10-02T05:16:22.995Z,0
2017-10-02T05:17:03.545Z,0
2017-10-02T05:17:44.086Z,0
2017-10-02T05:18:24.637Z,0
2017-10-02T05:19:05.184Z,0
2017-10-02T05:19:45.703Z,0
2017-10-02T05:20:26.221Z,0
2017-10-02T05:21:06.742Z,0
2017-10-02T05:21:47.311Z,0
2017-10-02T05:22:27.838Z,0
2017-10-02T05:23:08.379Z,0
2017-10-02T05:23:48.968Z,0
2017-10-02T05:24:29.485Z,0
2017-10-02T05:25:10.020Z,0
2017-10-02T05:25:50.535Z,0
2017-10-02T05:26:31.040Z,0
2017-10-02T05:27:11.566Z,0
2017-10-02T05:27:52.110Z,0
2017-10-02T05:28:32.659Z,0
2017-10-02T05:29:13.195Z,0
2017-10-02T05:29:53.786Z,0
2017-10-02T05:30:34.239Z,0
2017-10-02T05:31:14.759Z,0
2017-10-02T05:31:55.268Z,0
2017-10-02T05:32:35.777Z,0
2017-10-02T05:33:16.311Z,0
2017-10-02T05:33:56.805Z,0
2017-10-02T05:34:37.285Z,0
2017-10-02T05:35:20.775Z,0
2017-10-02T05:36:01.537Z,0
2017-10-02T05:36:42.502Z,0
2017-10-02T05:37:26.613Z,0
2017-10-02T05:38:08.939Z,0
2017-10-02T05:38:53.219Z,0
2017-10-02T05:39:33.823Z,0
2017-10-02T05:40:19.462Z,5
2017-10-02T05:41:01.999Z,5
2017-10-02T05:41:44.383Z,5
2017-10-02T05:42:25.109Z,5
2017-10-02T05:43:09.360Z,5
2017-10-02T05:43:51.153Z,5
2017-10-02T05:44:31.695Z,5
2017-10-02T05:45:12.253Z,5
2017-10-02T05:45:52.771Z,5
2017-10-02T05:46:33.298Z,5
2017-10-02T05:47:13.816Z,5
2017-10-02T05:47:54.317Z,5
2017-10-02T05:48:34.828Z,5
2017-10-02T05:49:15.321Z,5
2017-10-02T05:49:55.814Z,5
2017-10-02T05:50:36.317Z,5
2017-10-02T05:51:16.838Z,5
2017-10-02T05:51:57.328Z,10
2017-10-02T05:52:37.819Z,10
2017-10-02T05:53:18.337Z,10
2017-10-02T05:53:58.841Z,10
2017-10-02T05:54:39.347Z,10
2017-10-02T05:55:19.901Z,10
2017-10-02T05:56:00.518Z,10
2017-10-02T05:56:41.081Z,10
2017-10-02T05:57:21.557Z,10
2017-10-02T05:58:02.062Z,10
2017-10-02T05:58:42.591Z,10
2017-10-02T05:59:23.075Z,10
2017-10-02T06:00:03.637Z,10
2017-10-02T06:00:44.144Z,10
2017-10-02T06:01:24.726Z,10
2017-10-02T06:02:05.243Z,5
2017-10-02T06:02:45.772Z,5
2017-10-02T06:03:28.071Z,5
2017-10-02T06:04:08.580Z,5
2017-10-02T06:04:49.113Z,5
2017-10-02T06:05:29.678Z,5
2017-10-02T06:06:10.176Z,5
2017-10-02T06:06:50.694Z,5
2017-10-02T06:07:32.155Z,5
2017-10-02T06:08:14.225Z,5
2017-10-02T06:08:54.725Z,5
2017-10-02T06:09:35.241Z,5
2017-10-02T06:10:15.744Z,5
2017-10-02T06:10:56.261Z,5
2017-10-02T06:11:36.786Z,5
2017-10-02T06:12:17.333Z,5
2017-10-02T06:12:57.931Z,5
2017-10-02T06:13:38.522Z,5
2017-10-02T06:14:19.016Z,5
2017-10-02T06:14:59.655Z,5
2017-10-02T06:15:40.180Z,5
2017-10-02T06:16:20.651Z,5
2017-10-02T06:17:01.190Z,5
2017-10-02T06:17:41.733Z,5
2017-10-02T06:18:22.224Z,5
2017-10-02T06:19:02.915Z,5
2017-10-02T06:19:43.489Z,5
2017-10-02T06:20:23.898Z,5
2017-10-02T06:21:04.403Z,5
2017-10-02T06:21:44.914Z,5
2017-10-02T06:22:25.428Z,5
2017-10-02T06:23:05.916Z,5
2017-10-02T06:23:46.421Z,5
2017-10-02T06:24:26.961Z,5
2017-10-02T06:25:07.433Z,5
2017-10-02T06:25:47.955Z,5
2017-10-02T06:26:28.566Z,5
2017-10-02T06:27:09.099Z,5
2017-10-02T06:27:49.629Z,5
2017-10-02T06:28:30.133Z,5
2017-10-02T06:29:10.651Z,10
2017-10-02T06:29:51.155Z,10
2017-10-02T06:30:31.688Z,10
2017-10-02T06:31:12.182Z,10
2017-10-02T06:31:52.685Z,10
2017-10-02T06:32:33.255Z,10
2017-10-02T06:33:13.796Z,10
2017-10-02T06:33:54.264Z,10
2017-10-02T06:34:34.753Z,10
2017-10-02T06:35:15.261Z,10
2017-10-02T06:35:55.758Z,15
2017-10-02T06:36:36.273Z,15
2017-10-02T06:37:16.755Z,15
2017-10-02T06:37:57.248Z,15
2017-10-02T06:38:37.816Z,15
2017-10-02T06:39:18.338Z,15
2017-10-02T06:39:58.870Z,15
2017-10-02T06:40:39.378Z,15
2017-10-02T06:41:19.895Z,15
2017-10-02T06:42:00.392Z,15
2017-10-02T06:42:40.908Z,15
2017-10-02T06:43:21.476Z,15
2017-10-02T06:44:02.005Z,15
2017-10-02T06:44:42.414Z,20
2017-10-02T06:45:22.933Z,20
2017-10-02T06:46:03.584Z,20
2017-10-02T06:46:44.091Z,20
2017-10-02T06:47:24.556Z,15
2017-10-02T06:48:05.665Z,15
2017-10-02T06:48:46.515Z,15
2017-10-02T06:49:29.011Z,15
2017-10-02T06:50:09.642Z,15
2017-10-02T06:50:52.350Z,15
2017-10-02T06:51:33.290Z,15
2017-10-02T06:52:13.870Z,20
2017-10-02T06:52:54.642Z,20
2017-10-02T06:53:35.449Z,15
2017-10-02T06:54:16.051Z,20
2017-10-02T06:55:01.205Z,15
2017-10-02T06:55:43.669Z,15
2017-10-02T06:56:25.946Z,15
2017-10-02T06:57:06.525Z,15
2017-10-02T06:57:47.686Z,15
2017-10-02T06:58:28.378Z,15
2017-10-02T06:59:09.305Z,15
2017-10-02T06:59:50.026Z,20
2017-10-02T07:00:33.806Z,20
2017-10-02T07:01:14.356Z,20
2017-10-02T07:01:56.638Z,20
2017-10-02T07:02:37.441Z,20
2017-10-02T07:03:18.023Z,20
2017-10-02T07:03:58.756Z,20
2017-10-02T07:04:39.402Z,20
2017-10-02T07:05:20.280Z,20
2017-10-02T07:06:01.182Z,15
2017-10-02T07:06:41.859Z,15
2017-10-02T07:07:22.361Z,15
2017-10-02T07:08:02.814Z,15
2017-10-02T07:08:43.664Z,15
2017-10-02T07:09:24.180Z,15
2017-10-02T07:10:04.658Z,15
2017-10-02T07:10:47.809Z,15
2017-10-02T07:11:28.402Z,20
2017-10-02T07:12:08.925Z,20
2017-10-02T07:12:49.440Z,20
2017-10-02T07:13:30.009Z,20
2017-10-02T07:14:13.338Z,20
2017-10-02T07:14:54.458Z,25
2017-10-02T07:15:34.947Z,25
2017-10-02T07:16:16.219Z,25
2017-10-02T07:16:57.860Z,30
2017-10-02T07:17:40.393Z,35
2017-10-02T07:18:21.379Z,45
2017-10-02T07:19:04.346Z,50
2017-10-02T07:19:44.940Z,60
2017-10-02T07:20:25.734Z,70
2017-10-02T07:21:06.318Z,75
2017-10-02T07:21:46.913Z,85
2017-10-02T07:22:27.439Z,90
2017-10-02T07:23:07.953Z,85
2017-10-02T07:23:48.462Z,85
2017-10-02T07:24:29.003Z,85
2017-10-02T07:25:09.563Z,85
2017-10-02T07:25:50.070Z,80
2017-10-02T07:26:30.620Z,70
2017-10-02T07:27:11.144Z,70
2017-10-02T07:27:51.690Z,70
2017-10-02T07:28:32.230Z,70
2017-10-02T07:29:12.758Z,70
2017-10-02T07:29:53.288Z,70
2017-10-02T07:30:33.813Z,70
2017-10-02T07:31:14.362Z,65
2017-10-02T07:31:54.908Z,60
2017-10-02T07:32:35.647Z,60
2017-10-02T07:33:16.451Z,55
2017-10-02T07:33:57.377Z,55
2017-10-02T07:34:38.142Z,55
2017-10-02T07:35:18.780Z,50
2017-10-02T07:35:59.383Z,55
2017-10-02T07:36:39.976Z,55
2017-10-02T07:37:20.565Z,55
2017-10-02T07:38:02.006Z,55
2017-10-02T07:38:42.545Z,55
2017-10-02T07:39:23.065Z,55
2017-10-02T07:40:03.642Z,60
2017-10-02T07:40:44.431Z,60
2017-10-02T07:41:25.081Z,60
2017-10-02T07:42:06.521Z,60
2017-10-02T07:42:48.739Z,60
2017-10-02T07:43:29.327Z,55
2017-10-02T07:44:10.094Z,50
2017-10-02T07:44:51.076Z,50
2017-10-02T07:45:31.554Z,50
2017-10-02T07:46:12.170Z,50
2017-10-02T07:46:52.695Z,45
2017-10-02T07:47:33.205Z,45
2017-10-02T07:48:13.728Z,45
2017-10-02T07:48:54.269Z,45
2017-10-02T07:49:34.749Z,45
2017-10-02T07:50:15.394Z,40
2017-10-02T07:50:55.859Z,40
2017-10-02T07:51:36.391Z,40
2017-10-02T07:52:16.913Z,40
2017-10-02T07:52:57.546Z,40
2017-10-02T07:53:38.024Z,40
2017-10-02T07:54:18.641Z,40
2017-10-02T07:54:59.100Z,40
2017-10-02T07:55:39.603Z,45
2017-10-02T07:56:20.138Z,50
2017-10-02T07:57:00.691Z,55
2017-10-02T07:57:41.271Z,60
2017-10-02T07:58:21.817Z,60
2017-10-02T07:59:02.365Z,60
2017-10-02T07:59:42.839Z,60
2017-10-02T08:00:23.370Z,60
2017-10-02T08:01:03.888Z,55
2017-10-02T08:01:44.430Z,55
2017-10-02T08:02:24.893Z,55
2017-10-02T08:03:05.423Z,55
2017-10-02T08:03:45.929Z,60
2017-10-02T08:04:26.443Z,60
2017-10-02T08:05:06.953Z,60
2017-10-02T08:05:47.454Z,60
2017-10-02T08:06:27.969Z,60
2017-10-02T08:07:08.503Z,60
2017-10-02T08:07:49.069Z,60
2017-10-02T08:08:29.549Z,65
2017-10-02T08:09:10.046Z,65
2017-10-02T08:09:50.586Z,70
2017-10-02T08:10:31.119Z,80
2017-10-02T08:11:11.621Z,85
2017-10-02T08:11:52.259Z,85
2017-10-02T08:12:32.842Z,80
2017-10-02T08:13:13.358Z,70
2017-10-02T08:13:53.948Z,70
2017-10-02T08:14:34.497Z,70
2017-10-02T08:15:15.140Z,80
2017-10-02T08:15:55.698Z,85
2017-10-02T08:16:36.370Z,85
2017-10-02T08:17:17.150Z,75
2017-10-02T08:17:57.896Z,75
2017-10-02T08:18:38.987Z,75
2017-10-02T08:19:20.152Z,70
2017-10-02T08:20:01.075Z,70
2017-10-02T08:20:41.645Z,70
2017-10-02T08:21:22.216Z,70
2017-10-02T08:22:03.223Z,65
2017-10-02T08:22:43.478Z,70
2017-10-02T08:23:24.091Z,70
2017-10-02T08:24:04.613Z,65
2017-10-02T08:24:45.218Z,70
2017-10-02T08:25:25.698Z,75
2017-10-02T08:26:06.220Z,75
2017-10-02T08:26:46.714Z,75
2017-10-02T08:27:27.252Z,65
2017-10-02T08:28:08.018Z,60
2017-10-02T08:28:48.692Z,60
2017-10-02T08:29:29.245Z,60
2017-10-02T08:30:10.040Z,65
2017-10-02T08:30:50.715Z,65
2017-10-02T08:31:31.360Z,60
2017-10-02T08:32:11.892Z,60
2017-10-02T08:32:53.048Z,65
2017-10-02T08:33:33.714Z,65
2017-10-02T08:34:14.520Z,60
2017-10-02T08:34:54.740Z,60
2017-10-02T08:35:35.830Z,60
2017-10-02T08:36:16.493Z,65
2017-10-02T08:36:57.426Z,70
2017-10-02T08:37:37.983Z,75
2017-10-02T08:38:18.873Z,80
2017-10-02T08:38:59.335Z,80
2017-10-02T08:39:40.004Z,90
2017-10-02T08:40:20.627Z,90
2017-10-02T08:41:01.131Z,100
2017-10-02T08:41:41.679Z,105
2017-10-02T08:42:22.702Z,110
2017-10-02T08:43:03.007Z,110
2017-10-02T08:43:43.508Z,110
2017-10-02T08:44:24.229Z,110
2017-10-02T08:45:04.747Z,105
2017-10-02T08:45:45.331Z,90
2017-10-02T08:46:25.843Z,85
2017-10-02T08:47:06.457Z,80
2017-10-02T08:47:47.384Z,80
2017-10-02T08:48:27.709Z,80
2017-10-02T08:49:08.545Z,75
2017-10-02T08:51:43.784Z,70
2017-10-02T08:52:24.653Z,60
2017-10-02T08:53:05.114Z,55
2017-10-02T08:53:46.257Z,55
2017-10-02T08:54:27.019Z,60
2017-10-02T08:55:07.822Z,55
2017-10-02T08:55:48.557Z,45
2017-10-02T08:56:29.045Z,50
2017-10-02T08:57:10.373Z,55
2017-10-02T08:57:50.894Z,45
2017-10-02T08:58:31.487Z,40
2017-10-02T08:59:12.060Z,40
2017-10-02T08:59:52.586Z,50
2017-10-02T09:00:33.383Z,60
2017-10-02T09:01:14.772Z,55
2017-10-02T09:01:55.441Z,55
2017-10-02T09:02:35.988Z,60
2017-10-02T09:03:16.458Z,65
2017-10-02T09:03:56.986Z,65
2017-10-02T09:04:37.707Z,55
2017-10-02T09:05:18.416Z,55
2017-10-02T09:05:59.260Z,55
2017-10-02T09:06:39.804Z,50
2017-10-02T09:07:20.455Z,50
2017-10-02T09:08:01.382Z,45
2017-10-02T09:08:41.702Z,45
2017-10-02T09:09:22.242Z,45
2017-10-02T09:10:02.808Z,45
2017-10-02T09:10:43.347Z,45
2017-10-02T09:11:23.855Z,40
2017-10-02T09:12:04.398Z,45
2017-10-02T09:12:44.936Z,45
2017-10-02T09:13:25.498Z,45
2017-10-02T09:14:06.047Z,45
2017-10-02T09:14:46.543Z,45
2017-10-02T09:15:27.095Z,50
2017-10-02T09:16:08.000Z,45
2017-10-02T09:16:48.484Z,45
2017-10-02T09:17:29.089Z,45
2017-10-02T09:18:09.585Z,40
2017-10-02T09:18:50.132Z,40
2017-10-02T09:19:30.691Z,45
2017-10-02T09:20:11.215Z,50
2017-10-02T09:20:51.768Z,50
2017-10-02T09:21:32.389Z,65
2017-10-02T09:22:12.964Z,80
2017-10-02T09:22:53.496Z,80
2017-10-02T09:23:34.001Z,95
2017-10-02T09:24:14.613Z,110
2017-10-02T09:24:55.368Z,115
2017-10-02T09:25:36.296Z,130
2017-10-02T09:26:16.708Z,140
2017-10-02T09:26:57.242Z,140
2017-10-02T09:27:37.749Z,140
2017-10-02T09:28:18.317Z,140
2017-10-02T09:28:58.799Z,135
2017-10-02T09:29:39.966Z,120
2017-10-02T09:30:21.469Z,100
2017-10-02T09:31:02.049Z,85
2017-10-02T09:31:42.624Z,80
2017-10-02T09:32:23.169Z,70
2017-10-02T09:33:03.942Z,65
2017-10-02T09:33:44.703Z,60
2017-10-02T09:34:25.294Z,60
2017-10-02T09:35:06.224Z,55
2017-10-02T09:35:46.985Z,55
2017-10-02T09:36:27.674Z,65
2017-10-02T09:37:08.278Z,80
2017-10-02T09:37:49.548Z,95
2017-10-02T09:38:30.583Z,100
2017-10-02T09:39:11.395Z,115
2017-10-02T09:39:52.002Z,140
2017-10-02T09:40:32.499Z,140
2017-10-02T09:41:13.027Z,145
2017-10-02T09:41:53.556Z,165
2017-10-02T09:42:34.107Z,170
2017-10-02T09:43:14.663Z,180
2017-10-02T09:43:55.216Z,180
2017-10-02T09:44:35.760Z,180
2017-10-02T09:45:16.351Z,185
2017-10-02T09:45:56.961Z,170
2017-10-02T09:46:37.516Z,160
2017-10-02T09:47:18.161Z,150
2017-10-02T09:47:58.830Z,140
2017-10-02T09:48:39.909Z,130
2017-10-02T09:49:20.452Z,125
2017-10-02T09:50:00.955Z,130
2017-10-02T09:50:41.556Z,130
2017-10-02T09:51:22.110Z,125
2017-10-02T09:52:02.740Z,115
2017-10-02T09:52:43.252Z,110
2017-10-02T09:53:23.773Z,110
2017-10-02T09:54:05.127Z,115
2017-10-02T09:54:45.665Z,115
2017-10-02T09:55:26.207Z,115
2017-10-02T09:56:06.884Z,115
2017-10-02T09:56:47.434Z,110
2017-10-02T09:57:28.059Z,100
2017-10-02T09:58:08.609Z,95